This is the latest recevied weather packets stored in our database for station/object KB2FWP. If no packets are shown the sender has not sent any weather packets the latest 10 day(s).
| Time | Temp. | Humidity | Pressure | Rain* | Wind** | Luminosity | Snow |
|---|---|---|---|---|---|---|---|
| 1777675548 | 11.67° C | 79% | 1012.8 hPa | 0 mm | - | - | - |
| 1777674648 | 11.67° C | 78% | 1012.9 hPa | 0 mm | - | - | - |
| 1777673747 | 11.67° C | 76% | 1012.9 hPa | 0 mm | - | - | - |
| 1777672874 | 11.67° C | 75% | 1012.8 hPa | 0 mm | - | - | - |
| 1777671946 | 12.22° C | 73% | 1012.9 hPa | 0 mm | - | - | - |
| 1777671044 | 12.22° C | 70% | 1012.9 hPa | 0 mm | - | - | - |
| 1777670144 | 12.22° C | 69% | 1012.8 hPa | 0 mm | - | - | - |
| 1777669261 | 12.78° C | 66% | 1012.7 hPa | 0 mm | - | - | - |
| 1777668345 | 12.78° C | 65% | 1012.8 hPa | 0 mm | - | - | - |
| 1777667443 | 13.33° C | 63% | 1012.8 hPa | 0 mm | - | - | - |
| 1777666544 | 13.89° C | 62% | 1012.6 hPa | 0 mm | - | - | - |
| 1777665641 | 15° C | 58% | 1012.5 hPa | 0 mm | - | - | - |
| 1777664742 | 14.44° C | 58% | 1012.5 hPa | 0 mm | - | - | - |
| 1777663901 | 15° C | 60% | 1012.7 hPa | 0 mm | - | - | - |
| 1777662939 | 16.11° C | 48% | 1012.6 hPa | 0 mm | - | - | - |
| 1777662040 | 15.56° C | 50% | 1012.8 hPa | 0 mm | - | - | - |
| 1777661137 | 15.56° C | 48% | 1013 hPa | 0 mm | - | - | - |
| 1777660256 | 15° C | 49% | 1013 hPa | 0 mm | - | - | - |
| 1777659355 | 15.56° C | 49% | 1013 hPa | 0 mm | - | - | - |
| 1777658435 | 14.44° C | 52% | 1013.1 hPa | 0 mm | - | - | - |
| 1777657535 | 15° C | 53% | 1013.3 hPa | 0 mm | - | - | - |
| 1777656639 | 15° C | 54% | 1013.4 hPa | 0 mm | - | - | - |
| 1777655734 | 14.44° C | 51% | 1013.4 hPa | 0 mm | - | - | - |
| 1777654834 | 17.22° C | 44% | 1013.5 hPa | 0 mm | - | - | - |
| 1777653941 | 17.22° C | 37% | 1013.5 hPa | 0 mm | - | - | - |
* Rain latest hour (hover to see other rain measurements)
** Current wind speed in m/s (hover to see current wind gust speed)